Time;durP1;ratioP1;P1;durP2;ratioP2;P2;SDS_P1;SDS_P2;PMS_P1;PMS_P2;Temp;Humidity;BMP_temperature;BMP_pressure;BME280_temperature;BME280_humidity;BME280_pressure;Samples;Min_cycle;Max_cycle;Signal;HPM_P1;HPM_P2
2023/01/18 00:00:44;;;;;;;14.43;9.73;;;;;;;-0.27;75.00;98809.56;3603539;39;20452;-63
2023/01/18 00:03:12;;;;;;;15.90;10.20;;;;;;;0.10;75.37;98872.91;3606405;39;20124;-64
2023/01/18 00:05:40;;;;;;;16.40;9.80;;;;;;;-0.18;74.78;98832.03;3605422;39;20042;-63
2023/01/18 00:08:18;;;;;;;18.60;10.05;;;;;;;0.09;74.93;98877.31;3606187;39;20055;-64
2023/01/18 00:10:44;;;;;;;15.80;9.55;;;;;;;-0.04;75.22;98849.81;3599788;39;20066;-64
2023/01/18 00:13:11;;;;;;;16.27;9.50;;;;;;;0.05;75.36;98864.34;3603705;39;20063;-64
2023/01/18 00:15:38;;;;;;;21.67;9.90;;;;;;;0.07;75.58;98878.34;3605848;39;20098;-62
2023/01/18 00:18:04;;;;;;;16.70;9.38;;;;;;;0.06;74.23;98877.44;3606040;39;20050;-63
2023/01/18 00:20:30;;;;;;;18.15;9.50;;;;;;;-0.04;75.03;98861.22;3605557;39;20050;-63
2023/01/18 00:23:00;;;;;;;19.98;10.07;;;;;;;0.06;75.49;98882.72;3606717;39;20058;-63
2023/01/18 00:25:27;;;;;;;26.58;12.15;;;;;;;0.05;75.52;98885.47;3603943;39;20155;-63
2023/01/18 00:27:55;;;;;;;26.25;11.90;;;;;;;0.04;74.94;98884.63;3606244;39;20133;-63
2023/01/18 00:30:25;;;;;;;25.70;11.52;;;;;;;0.04;74.78;98887.25;3607597;39;20062;-63
2023/01/18 00:32:57;;;;;;;22.95;11.18;;;;;;;0.01;74.62;98886.56;3603958;39;20059;-65
2023/01/18 00:35:24;;;;;;;22.88;10.68;;;;;;;-0.01;74.84;98886.63;3604311;39;20128;-62
2023/01/18 00:37:52;;;;;;;20.20;10.40;;;;;;;-0.03;75.50;98885.88;3606248;39;20348;-63
2023/01/18 00:40:21;;;;;;;20.45;10.18;;;;;;;-0.02;74.40;98893.69;3603389;39;20051;-63
2023/01/18 00:45:30;;;;;;;17.98;8.98;;;;;;;-0.03;75.39;98888.50;3606200;39;20115;-63
2023/01/18 00:47:57;;;;;;;14.48;9.43;;;;;;;-0.03;74.46;98893.78;3608750;39;20368;-64
2023/01/18 00:50:23;;;;;;;17.40;9.57;;;;;;;-0.05;75.32;98890.34;3604816;39;20087;-64
2023/01/18 00:52:49;;;;;;;18.38;9.05;;;;;;;-0.07;75.20;98890.41;3597264;39;20086;-63
2023/01/18 00:55:16;;;;;;;19.35;9.48;;;;;;;-0.19;74.64;98879.59;3608536;39;20098;-64
2023/01/18 00:57:42;;;;;;;15.43;9.25;;;;;;;-0.07;74.70;98892.22;3606863;39;20055;-64
2023/01/18 01:00:14;;;;;;;15.60;9.90;;;;;;;-0.08;75.33;98906.34;3604662;39;20067;-63
2023/01/18 01:02:40;;;;;;;14.18;8.88;;;;;;;-0.10;74.87;98903.78;3602688;39;20077;-63
2023/01/18 01:08:00;;;;;;;15.45;8.60;;;;;;;-0.13;75.35;98892.50;3606873;39;20386;-63
2023/01/18 01:10:26;;;;;;;13.10;8.00;;;;;;;-0.13;75.02;98913.63;3606748;39;20086;-62
2023/01/18 01:26:33;;;;;;;;;;;;;;;-0.26;75.81;98911.59;3605413;39;20073;-63
2023/01/18 01:28:59;;;;;;;14.52;8.27;;;;;;;-0.27;75.71;98920.44;3607100;39;19935;-63
2023/01/18 01:31:24;;;;;;;13.43;7.95;;;;;;;-0.29;75.18;98914.38;3601348;39;20374;-64
2023/01/18 01:33:51;;;;;;;20.48;8.27;;;;;;;-0.30;75.34;98917.94;3604014;39;20062;-65
2023/01/18 01:36:24;;;;;;;13.65;7.93;;;;;;;-0.29;76.34;98918.81;3606081;39;20103;-64
2023/01/18 01:38:51;;;;;;;;;;;;;;;-0.34;75.18;98916.41;3604442;39;20270;-64
2023/01/18 01:41:24;;;;;;;13.15;7.57;;;;;;;-0.38;76.47;98925.41;3602563;39;19997;-64
2023/01/18 01:43:54;;;;;;;14.65;8.20;;;;;;;-0.40;75.16;98927.25;3605509;39;20054;-64
2023/01/18 01:46:52;;;;;;;17.05;8.45;;;;;;;-0.42;75.01;98931.72;3602681;39;20047;-64
2023/01/18 01:49:38;;;;;;;19.63;9.52;;;;;;;-0.44;75.34;98930.97;3604436;39;20058;-64
2023/01/18 01:52:19;;;;;;;15.00;8.13;;;;;;;-0.45;75.95;98934.53;3605589;39;20051;-64
2023/01/18 01:55:21;;;;;;;13.32;8.23;;;;;;;-0.54;76.36;98929.66;3605041;39;20063;-64
2023/01/18 01:58:11;;;;;;;17.15;8.90;;;;;;;-0.52;75.83;98943.66;3604008;39;20074;-63
2023/01/18 02:00:38;;;;;;;16.92;8.13;;;;;;;-0.53;75.33;98937.53;3605367;39;20112;-64
2023/01/18 02:03:11;;;;;;;13.57;7.68;;;;;;;-0.55;75.53;98941.16;3605636;39;20051;-64
2023/01/18 02:05:44;;;;;;;10.52;7.40;;;;;;;-0.57;75.90;98943.00;3607058;39;20042;-64
2023/01/18 02:08:21;;;;;;;21.02;8.15;;;;;;;-0.78;76.41;98914.06;3607333;39;20082;-64
2023/01/18 02:10:51;;;;;;;13.80;7.85;;;;;;;-0.58;75.56;98943.94;3605483;39;20413;-64
2023/01/18 02:13:21;;;;;;;14.77;7.60;;;;;;;-0.87;75.78;98890.75;3606028;39;20070;-64
2023/01/18 02:16:24;;;;;;;20.00;7.97;;;;;;;-0.57;75.91;98941.25;3604284;39;20062;-64
2023/01/18 02:19:36;;;;;;;12.93;7.35;;;;;;;-0.66;75.34;98925.84;3606924;39;20058;-63
2023/01/18 02:22:45;;;;;;;14.20;7.90;;;;;;;-0.53;76.91;98942.81;3605152;39;20047;-64
2023/01/18 02:25:55;;;;;;;16.55;8.05;;;;;;;-0.51;75.48;98937.44;3607327;39;20384;-64
2023/01/18 02:28:32;;;;;;;14.07;7.80;;;;;;;-0.48;75.81;98929.38;3605487;39;20136;-64
2023/01/18 02:31:07;;;;;;;13.43;7.60;;;;;;;-0.48;75.21;98930.25;3606388;39;20055;-64
2023/01/18 02:33:44;;;;;;;15.65;8.57;;;;;;;-0.47;75.59;98931.13;3606823;39;20066;-64
2023/01/18 02:36:31;;;;;;;13.63;7.88;;;;;;;-0.46;75.81;98946.00;3608054;39;20073;-64
2023/01/18 02:39:22;;;;;;;12.60;8.38;;;;;;;-0.42;74.67;98949.34;3605755;39;20350;-64
2023/01/18 02:47:33;;;;;;;11.38;7.20;;;;;;;-0.48;75.25;98950.50;3603882;39;20404;-64
2023/01/18 02:49:58;;;;;;;15.65;7.95;;;;;;;-0.51;75.68;98955.91;3605386;39;20061;-64
2023/01/18 02:52:44;;;;;;;13.93;8.27;;;;;;;-0.54;74.90;98956.94;3606014;39;20051;-64
2023/01/18 02:55:22;;;;;;;14.65;8.15;;;;;;;-0.56;75.51;98966.69;3604331;39;20299;-64
2023/01/18 02:57:47;;;;;;;16.17;7.93;;;;;;;-0.59;74.65;98961.56;3604453;39;20063;-64
2023/01/18 03:00:22;;;;;;;13.88;8.25;;;;;;;-0.67;75.93;98950.50;3604336;39;20283;-64
2023/01/18 03:02:52;;;;;;;11.95;7.75;;;;;;;-0.61;75.63;98966.03;3603337;39;20073;-63
2023/01/18 03:05:23;;;;;;;14.75;7.97;;;;;;;-0.64;74.76;98960.06;3603815;39;20052;-64
2023/01/18 03:08:08;;;;;;;13.70;8.38;;;;;;;-1.66;74.55;98803.84;3602908;39;20083;-64
2023/01/18 03:10:56;;;;;;;12.55;8.15;;;;;;;-0.94;74.93;98935.03;3607678;39;20055;-64
2023/01/18 03:13:42;;;;;;;18.05;8.77;;;;;;;-0.71;74.73;98970.03;3604678;39;20055;-64
2023/01/18 03:16:56;;;;;;;14.70;8.40;;;;;;;-0.77;75.49;98960.63;3605507;39;20051;-64
2023/01/18 03:25:37;;;;;;;18.65;8.27;;;;;;;-0.81;75.51;98966.97;3604898;39;20061;-64
2023/01/18 03:33:59;;;;;;;15.82;8.65;;;;;;;-0.84;76.27;98974.16;3604509;39;20055;-64
2023/01/18 03:36:32;;;;;;;14.15;8.23;;;;;;;-0.85;75.79;98977.75;3607331;39;20052;-64
2023/01/18 03:39:07;;;;;;;15.90;8.85;;;;;;;-0.85;76.02;98972.47;3605966;39;20058;-64
2023/01/18 03:41:42;;;;;;;18.08;9.65;;;;;;;-0.87;75.65;98975.16;3604177;39;20087;-64
2023/01/18 03:44:21;;;;;;;16.83;9.18;;;;;;;-0.95;75.60;98972.03;3606734;39;20147;-64
2023/01/18 03:46:47;;;;;;;19.02;10.27;;;;;;;-0.92;75.55;98982.41;3604758;39;20063;-64
2023/01/18 03:49:15;;;;;;;16.02;10.00;;;;;;;-0.93;76.03;98980.72;3603844;39;20067;-64
2023/01/18 03:52:18;;;;;;;18.00;9.82;;;;;;;-0.95;76.61;98993.13;3604015;39;20252;-64
2023/01/18 03:55:08;;;;;;;12.60;8.63;;;;;;;-1.01;76.27;98993.41;3604062;39;20398;-64
2023/01/18 03:57:49;;;;;;;16.10;9.63;;;;;;;-0.99;75.94;99007.34;3603501;39;20043;-64
2023/01/18 04:00:16;;;;;;;19.17;9.40;;;;;;;-1.03;76.03;99003.13;3602840;39;20051;-64
2023/01/18 04:02:44;;;;;;;15.70;9.23;;;;;;;-1.02;76.17;99010.13;3604273;39;20067;-63
2023/01/18 04:05:10;;;;;;;16.40;10.20;;;;;;;-1.02;76.20;99016.25;3603683;39;20185;-65
2023/01/18 04:07:36;;;;;;;14.68;8.95;;;;;;;-1.03;77.33;99016.31;3604295;39;20043;-64
2023/01/18 04:10:01;;;;;;;14.60;8.48;;;;;;;-1.01;77.21;99019.75;3605033;39;20278;-64
2023/01/18 04:12:27;;;;;;;18.83;9.15;;;;;;;-0.98;77.08;99020.47;3604624;39;20267;-64
2023/01/18 04:14:53;;;;;;;15.45;9.57;;;;;;;-0.98;77.20;99017.84;3605069;39;20055;-63
2023/01/18 04:17:19;;;;;;;15.77;9.65;;;;;;;-0.96;76.76;99023.03;3605043;39;20329;-63
2023/01/18 04:19:45;;;;;;;20.90;9.48;;;;;;;-0.94;77.43;99021.19;3602059;39;20155;-63
2023/01/18 04:22:11;;;;;;;15.00;9.52;;;;;;;-0.92;76.86;99024.59;3604922;39;20051;-62
2023/01/18 04:24:36;;;;;;;19.83;9.77;;;;;;;-0.92;76.56;99027.25;3605055;39;20061;-63
2023/01/18 04:27:03;;;;;;;15.20;9.20;;;;;;;-0.97;76.27;99022.19;3603186;39;20062;-63
2023/01/18 04:29:29;;;;;;;14.43;9.30;;;;;;;-0.94;76.51;99024.69;3600166;39;20395;-63
2023/01/18 04:31:55;;;;;;;16.15;8.65;;;;;;;-0.90;76.40;99027.19;3603489;39;20051;-62
2023/01/18 04:34:21;;;;;;;16.02;8.82;;;;;;;-0.91;76.87;99028.97;3604200;39;20076;-62
2023/01/18 04:36:48;;;;;;;15.05;8.75;;;;;;;-0.90;76.74;99030.69;3604783;39;20404;-65
2023/01/18 04:39:14;;;;;;;23.20;9.93;;;;;;;-0.98;76.33;99019.63;3601323;39;20051;-63
2023/01/18 04:41:40;;;;;;;15.55;9.30;;;;;;;-0.91;76.99;99031.63;3606208;39;20059;-62
2023/01/18 04:44:05;;;;;;;16.58;9.70;;;;;;;-0.93;77.21;99030.81;3602744;39;20103;-63
2023/01/18 04:46:31;;;;;;;17.75;10.32;;;;;;;-0.94;75.99;99031.75;3602764;39;20062;-63
2023/01/18 04:48:57;;;;;;;15.02;9.95;;;;;;;-0.94;76.18;99032.59;3592688;39;20051;-62
2023/01/18 04:51:23;;;;;;;15.38;9.38;;;;;;;-0.94;77.03;99037.88;3607035;39;20062;-62
2023/01/18 04:53:50;;;;;;;16.13;10.05;;;;;;;-1.69;76.29;98925.13;3602019;39;20062;-62
2023/01/18 04:56:16;;;;;;;25.42;13.07;;;;;;;-0.93;76.59;99046.63;3603170;39;20047;-62
2023/01/18 04:58:43;;;;;;;43.28;19.83;;;;;;;-0.93;76.76;99039.56;3603307;39;20068;-63
2023/01/18 05:01:13;;;;;;;78.80;33.92;;;;;;;-1.13;76.84;99004.47;3602576;39;20047;-63
2023/01/18 05:03:40;;;;;;;73.95;32.20;;;;;;;-0.91;76.15;99036.88;3603559;39;20374;-62
2023/01/18 05:06:14;;;;;;;42.72;23.35;;;;;;;-0.94;77.28;99039.66;3602178;39;20625;-62
2023/01/18 05:08:41;;;;;;;45.40;23.77;;;;;;;-0.89;77.13;99056.13;3607309;39;20064;-62
2023/01/18 05:11:16;;;;;;;44.70;26.48;;;;;;;-0.90;77.06;99057.06;3607732;39;20050;-62
2023/01/18 05:13:43;;;;;;;39.42;21.40;;;;;;;-0.87;77.07;99064.84;3604250;39;20569;-62
2023/01/18 05:16:18;;;;;;;23.33;15.10;;;;;;;-0.88;77.18;99068.41;3609330;39;20065;-62
2023/01/18 05:18:44;;;;;;;18.98;11.65;;;;;;;-0.89;75.83;99071.09;3607651;39;20062;-63
2023/01/18 05:21:11;;;;;;;20.85;11.73;;;;;;;-1.02;76.74;99042.59;3602634;39;20063;-61
2023/01/18 05:23:40;;;;;;;16.13;10.63;;;;;;;-0.90;77.05;99064.97;3603276;39;20207;-62
2023/01/18 05:26:15;;;;;;;20.70;11.57;;;;;;;-0.87;76.03;99070.09;3605841;39;20283;-63
2023/01/18 05:28:41;;;;;;;23.70;15.13;;;;;;;-0.89;76.33;99073.72;3603532;39;20632;-62
2023/01/18 05:31:08;;;;;;;23.60;13.07;;;;;;;-0.87;76.49;99078.03;3605428;39;20054;-62
2023/01/18 05:33:33;;;;;;;21.00;12.57;;;;;;;-0.86;77.14;99082.38;3608353;39;20070;-62
2023/01/18 05:35:59;;;;;;;19.73;13.30;;;;;;;-0.85;76.42;99083.25;3605393;39;20099;-62
2023/01/18 05:38:25;;;;;;;21.38;12.63;;;;;;;-0.85;75.99;99073.53;3601924;39;20062;-62
2023/01/18 05:40:53;;;;;;;21.15;12.30;;;;;;;-0.84;76.78;99084.94;3608327;39;20058;-62
2023/01/18 05:43:24;;;;;;;21.30;12.25;;;;;;;-0.86;76.12;99082.38;3606610;39;22585;-62
2023/01/18 05:45:49;;;;;;;21.23;12.27;;;;;;;-0.82;76.96;99091.88;3605482;39;20386;-62
2023/01/18 05:48:15;;;;;;;24.55;12.98;;;;;;;-0.82;76.88;99091.88;3603936;39;20120;-62
2023/01/18 05:50:44;;;;;;;23.27;11.85;;;;;;;-0.81;75.87;99098.00;3602374;39;20059;-61
2023/01/18 05:53:12;;;;;;;21.00;11.70;;;;;;;-0.80;75.97;99090.00;3597672;39;20104;-63
2023/01/18 05:55:38;;;;;;;25.27;12.68;;;;;;;-0.79;75.69;99099.66;3602480;39;20055;-64
2023/01/18 05:58:04;;;;;;;20.58;11.50;;;;;;;-0.79;76.92;99096.16;3605708;39;20097;-62
2023/01/18 06:00:30;;;;;;;21.90;11.70;;;;;;;-0.77;75.74;99103.06;3606189;39;20178;-62
2023/01/18 06:02:55;;;;;;;19.98;11.63;;;;;;;-0.74;75.71;99102.09;3604393;39;20400;-62
2023/01/18 06:05:24;;;;;;;21.83;11.85;;;;;;;-0.76;76.58;99102.16;3604202;39;20055;-62
2023/01/18 06:07:51;;;;;;;21.60;12.30;;;;;;;-0.75;76.27;99106.50;3604170;39;20113;-62
2023/01/18 06:10:17;;;;;;;25.27;12.27;;;;;;;-0.72;76.60;99108.16;3607908;39;20043;-63
2023/01/18 06:12:43;;;;;;;19.38;11.77;;;;;;;-0.73;75.76;99112.59;3599473;39;20105;-63
2023/01/18 06:15:11;;;;;;;21.27;12.02;;;;;;;-0.72;75.37;99116.94;3606183;39;20047;-63
2023/01/18 06:17:37;;;;;;;18.77;12.50;;;;;;;-0.69;75.48;99120.38;3600934;39;20394;-63
2023/01/18 06:20:05;;;;;;;18.00;11.55;;;;;;;-0.71;75.45;99123.91;3605992;39;20091;-63
2023/01/18 06:22:31;;;;;;;24.77;11.65;;;;;;;-0.70;75.24;99130.03;3603710;39;20053;-63
2023/01/18 06:24:57;;;;;;;21.70;11.68;;;;;;;-0.71;75.36;99134.47;3604006;39;20290;-63
2023/01/18 06:27:23;;;;;;;19.88;10.68;;;;;;;-0.74;75.25;99131.94;3601857;39;20062;-61
2023/01/18 06:29:49;;;;;;;17.42;11.57;;;;;;;-1.66;75.90;98985.59;3606065;39;20051;-63
2023/01/18 06:32:14;;;;;;;28.42;13.95;;;;;;;-0.77;76.37;99145.28;3592333;39;20144;-62
2023/01/18 06:34:40;;;;;;;35.65;15.38;;;;;;;-0.78;76.10;99145.34;3601511;39;20406;-63
2023/01/18 06:37:07;;;;;;;47.60;19.95;;;;;;;-0.89;75.21;99129.97;3601239;39;20039;-63
2023/01/18 06:39:33;;;;;;;25.58;15.18;;;;;;;-0.80;75.31;99153.31;3608041;39;20048;-63
2023/01/18 06:41:58;;;;;;;26.30;14.93;;;;;;;-0.80;75.31;99150.69;3604790;39;20039;-62
2023/01/18 06:44:24;;;;;;;25.45;16.02;;;;;;;-0.79;75.52;99147.13;3608233;39;20459;-63
2023/01/18 06:46:50;;;;;;;28.08;17.60;;;;;;;-0.81;76.27;99148.97;3604703;39;20052;-62
2023/01/18 06:49:15;;;;;;;27.92;15.30;;;;;;;-0.83;76.36;99156.09;3607104;39;20059;-61
2023/01/18 06:51:41;;;;;;;20.00;11.98;;;;;;;-0.83;75.68;99166.63;3606621;39;20058;-63
2023/01/18 06:54:07;;;;;;;22.33;12.00;;;;;;;-0.85;75.94;99172.91;3606028;39;20161;-62
2023/01/18 06:56:33;;;;;;;21.63;11.45;;;;;;;-0.99;76.20;99152.38;3606740;39;20107;-63
2023/01/18 06:58:59;;;;;;;17.80;10.93;;;;;;;-0.86;76.42;99179.09;3606432;39;20048;-63
2023/01/18 07:01:26;;;;;;;22.38;11.80;;;;;;;-0.89;75.28;99181.88;3608149;39;20063;-63
2023/01/18 07:03:52;;;;;;;19.58;11.35;;;;;;;-0.99;75.58;99166.41;3604037;39;20039;-63
2023/01/18 07:06:18;;;;;;;20.35;11.60;;;;;;;-0.91;75.41;99184.59;3609428;39;20086;-63
2023/01/18 07:08:44;;;;;;;16.67;11.18;;;;;;;-0.92;76.57;99193.38;3609088;39;20070;-63
2023/01/18 07:11:13;;;;;;;19.65;11.38;;;;;;;-0.94;76.42;99189.97;3606426;39;20091;-62
2023/01/18 07:13:39;;;;;;;20.40;11.95;;;;;;;-0.90;76.13;99191.56;3607972;39;20163;-62
2023/01/18 07:16:08;;;;;;;18.30;11.13;;;;;;;-0.88;76.59;99200.28;3605760;39;20085;-62
2023/01/18 07:18:33;;;;;;;21.50;11.23;;;;;;;-0.84;75.60;99193.09;3604413;39;20051;-62
2023/01/18 07:21:05;;;;;;;16.23;10.57;;;;;;;-0.83;76.34;99197.44;3607328;39;20065;-63
2023/01/18 07:23:35;;;;;;;19.60;10.82;;;;;;;-0.86;75.93;99201.06;3602978;39;20115;-63
2023/01/18 07:26:09;;;;;;;35.10;18.38;;;;;;;-0.87;75.63;99209.91;3608468;39;20388;-63
2023/01/18 07:28:36;;;;;;;39.00;21.25;;;;;;;-0.97;75.92;99196.22;3605628;39;20401;-63
2023/01/18 07:31:04;;;;;;;46.05;28.33;;;;;;;-0.85;76.67;99201.94;3607434;39;20382;-63
2023/01/18 07:33:30;;;;;;;31.25;21.23;;;;;;;-0.84;75.35;99204.50;3607441;39;20375;-63
2023/01/18 07:35:57;;;;;;;25.80;16.73;;;;;;;-0.96;76.43;99194.44;3605774;39;20073;-63
2023/01/18 07:38:25;;;;;;;20.88;14.77;;;;;;;-0.85;75.50;99215.97;3604105;39;20050;-63
2023/01/18 07:40:58;;;;;;;22.80;13.50;;;;;;;-0.85;76.44;99218.63;3603562;39;20059;-64
2023/01/18 07:43:24;;;;;;;24.27;12.85;;;;;;;-0.82;75.86;99222.91;3610487;39;20051;-64
2023/01/18 07:45:54;;;;;;;21.65;13.80;;;;;;;-0.84;75.69;99222.97;3605673;39;20419;-64
2023/01/18 07:48:20;;;;;;;21.35;12.05;;;;;;;-0.80;75.49;99221.06;3603850;39;20057;-64
2023/01/18 07:50:58;;;;;;;17.02;11.85;;;;;;;-0.78;76.54;99228.00;3608880;39;20377;-64
2023/01/18 07:53:26;;;;;;;20.15;12.65;;;;;;;-0.77;75.38;99229.69;3604280;39;20055;-64
2023/01/18 07:55:52;;;;;;;21.33;12.25;;;;;;;-0.85;75.58;99208.06;3605744;39;20424;-64
2023/01/18 07:58:19;;;;;;;18.42;11.35;;;;;;;-0.72;75.78;99225.09;3609064;39;20087;-64
2023/01/18 08:00:46;;;;;;;20.02;11.60;;;;;;;-0.74;75.92;99223.44;3610425;39;20065;-64
2023/01/18 08:03:16;;;;;;;20.25;11.07;;;;;;;-0.69;75.01;99234.66;3597275;39;20062;-64
2023/01/18 08:05:43;;;;;;;17.98;10.77;;;;;;;-0.68;76.09;99228.47;3606368;39;20135;-64
2023/01/18 08:08:11;;;;;;;19.75;11.90;;;;;;;-0.66;75.01;99239.81;3605838;39;20055;-64
2023/01/18 08:10:38;;;;;;;21.65;11.07;;;;;;;-0.63;75.53;99244.13;3606183;39;20381;-64
2023/01/18 08:13:08;;;;;;;20.15;11.57;;;;;;;-0.60;75.29;99244.84;3603329;39;20075;-64
2023/01/18 08:15:33;;;;;;;17.80;10.68;;;;;;;-1.08;76.13;99174.75;3605539;39;20058;-64
2023/01/18 08:18:05;;;;;;;21.30;11.57;;;;;;;-0.58;75.58;99256.19;3608223;39;20102;-64
2023/01/18 08:20:32;;;;;;;21.75;10.45;;;;;;;-0.55;75.49;99258.69;3608929;39;20400;-64
2023/01/18 08:23:00;;;;;;;19.23;10.80;;;;;;;-0.52;75.88;99260.34;3609700;39;20062;-64
2023/01/18 08:25:30;;;;;;;15.40;10.43;;;;;;;-0.63;75.15;99237.06;3606934;39;20039;-64
2023/01/18 08:28:01;;;;;;;17.35;10.57;;;;;;;-0.49;75.42;99262.84;3606862;39;20061;-64
2023/01/18 08:30:31;;;;;;;17.27;10.70;;;;;;;-0.47;76.04;99263.66;3603783;39;20121;-64
2023/01/18 08:33:00;;;;;;;18.52;11.00;;;;;;;-0.42;75.96;99259.03;3607651;39;20106;-64
2023/01/18 08:35:33;;;;;;;16.30;10.38;;;;;;;-0.73;74.99;99204.03;3604697;39;20374;-65
2023/01/18 08:38:01;;;;;;;22.48;12.23;;;;;;;-0.45;75.29;99255.66;3607804;39;20055;-64
2023/01/18 08:40:28;;;;;;;23.75;14.05;;;;;;;-0.32;75.21;99273.59;3597913;39;20964;-65
2023/01/18 08:43:00;;;;;;;23.48;16.17;;;;;;;-0.35;75.61;99284.28;3607469;39;20123;-63
2023/01/18 08:45:27;;;;;;;21.58;13.38;;;;;;;-0.33;76.04;99287.69;3602995;39;20078;-64
2023/01/18 08:48:08;;;;;;;24.45;16.13;;;;;;;-0.40;75.05;99270.41;3609370;39;20050;-66
2023/01/18 08:50:35;;;;;;;21.73;14.32;;;;;;;-0.22;74.48;99295.16;3609524;39;20055;-65
2023/01/18 08:53:01;;;;;;;27.33;19.27;;;;;;;-0.17;74.51;99292.31;3607443;39;20054;-65
2023/01/18 08:55:28;;;;;;;20.20;14.68;;;;;;;-0.33;75.00;99265.72;3607113;39;20074;-65
2023/01/18 08:57:57;;;;;;;18.20;12.25;;;;;;;-0.08;74.87;99297.22;3610189;39;20370;-65
2023/01/18 09:00:28;;;;;;;16.10;10.38;;;;;;;-0.02;75.23;99304.88;3609475;39;20058;-64
2023/01/18 09:02:55;;;;;;;19.38;10.07;;;;;;;0.01;74.50;99302.09;3607093;39;20051;-64
2023/01/18 09:05:23;;;;;;;16.45;9.32;;;;;;;0.01;74.11;99296.81;3603983;39;20054;-65
2023/01/18 09:07:51;;;;;;;14.85;10.15;;;;;;;0.14;74.54;99307.72;3608800;39;20059;-64
2023/01/18 09:10:17;;;;;;;16.25;9.63;;;;;;;0.15;74.33;99312.91;3607400;39;20484;-64
2023/01/18 09:12:42;;;;;;;15.75;9.60;;;;;;;0.16;74.24;99306.72;3604389;39;20067;-65
2023/01/18 09:15:09;;;;;;;15.85;9.65;;;;;;;0.29;74.28;99316.75;3608401;39;20055;-64
2023/01/18 09:17:34;;;;;;;15.02;8.85;;;;;;;0.32;73.40;99317.47;3608642;39;20059;-64
2023/01/18 09:20:00;;;;;;;16.17;9.95;;;;;;;0.43;73.49;99335.50;3608808;39;20062;-65
2023/01/18 09:22:26;;;;;;;13.52;9.30;;;;;;;0.49;73.16;99324.66;3610398;39;20098;-63
2023/01/18 09:24:51;;;;;;;18.88;9.45;;;;;;;0.53;73.06;99330.66;3602518;39;20110;-64
2023/01/18 09:27:17;;;;;;;17.23;9.48;;;;;;;0.60;73.41;99338.25;3604813;39;20297;-64
2023/01/18 09:29:45;;;;;;;17.23;8.93;;;;;;;0.66;73.00;99340.59;3603784;39;20069;-64
2023/01/18 09:32:12;;;;;;;15.43;9.57;;;;;;;0.73;72.36;99342.97;3602257;39;20503;-63
2023/01/18 09:34:37;;;;;;;14.80;8.98;;;;;;;0.80;72.45;99342.63;3606163;39;20066;-64
2023/01/18 09:37:03;;;;;;;19.45;9.65;;;;;;;0.88;73.02;99344.91;3609142;39;20362;-63
2023/01/18 09:39:29;;;;;;;18.90;10.32;;;;;;;0.93;72.69;99350.88;3606513;39;20365;-63
2023/01/18 09:42:01;;;;;;;13.30;9.18;;;;;;;1.06;73.38;99359.09;3608028;39;20051;-63
2023/01/18 09:44:58;;;;;;;14.65;7.97;;;;;;;1.16;72.07;99363.00;3599887;39;20062;-64
2023/01/18 09:47:33;;;;;;;13.23;8.90;;;;;;;1.28;72.49;99361.59;3602656;39;20094;-64
2023/01/18 09:50:21;;;;;;;16.98;9.07;;;;;;;1.46;71.33;99366.00;3604708;39;20062;-64
2023/01/18 09:53:12;;;;;;;14.57;8.63;;;;;;;1.63;71.83;99366.03;3609184;39;20379;-64
2023/01/18 09:56:06;;;;;;;15.13;8.55;;;;;;;1.79;71.39;99367.94;3606810;39;20054;-64
2023/01/18 09:59:32;;;;;;;14.07;7.68;;;;;;;1.98;70.09;99366.09;3605359;39;20051;-64
2023/01/18 10:02:13;;;;;;;12.13;7.78;;;;;;;2.15;70.25;99351.13;3602418;39;20047;-64
2023/01/18 10:04:47;;;;;;;12.32;7.90;;;;;;;2.45;70.07;99373.41;3609692;39;20338;-65
2023/01/18 10:07:17;;;;;;;13.82;7.97;;;;;;;2.66;68.69;99368.75;3609273;39;20050;-66
2023/01/18 10:09:53;;;;;;;10.27;7.43;;;;;;;2.86;67.98;99372.19;3605815;39;20062;-67
2023/01/18 10:12:37;;;;;;;14.93;8.45;;;;;;;3.10;67.60;99369.97;3604300;39;21284;-66
2023/01/18 10:15:19;;;;;;;15.82;8.65;;;;;;;3.31;66.74;99382.09;3606293;39;20057;-65
2023/01/18 10:17:50;;;;;;;14.90;9.13;;;;;;;3.54;65.74;99377.28;3605472;39;20051;-65
2023/01/18 10:20:40;;;;;;;12.90;7.80;;;;;;;3.72;64.77;99378.91;3604581;39;20063;-66
2023/01/18 10:23:30;;;;;;;13.10;8.05;;;;;;;3.99;65.40;99386.22;3604971;39;20051;-66
2023/01/18 10:26:20;;;;;;;9.85;7.60;;;;;;;4.26;63.90;99383.78;3605691;39;20494;-64
2023/01/18 10:29:11;;;;;;;12.80;7.68;;;;;;;4.52;63.17;99385.72;3606356;39;20061;-64
2023/01/18 10:32:00;;;;;;;11.82;7.13;;;;;;;4.74;62.47;99382.63;3608280;39;20109;-64
2023/01/18 10:34:34;;;;;;;13.07;7.65;;;;;;;5.00;60.97;99394.31;3608099;39;20071;-63
2023/01/18 10:37:39;;;;;;;8.77;6.85;;;;;;;5.15;60.96;99389.88;3604233;39;20124;-63
2023/01/18 10:40:09;;;;;;;9.93;6.50;;;;;;;5.26;60.05;99387.38;3606833;39;20065;-63
2023/01/18 10:42:46;;;;;;;10.02;7.03;;;;;;;5.43;59.62;99394.31;3605677;39;20081;-63
2023/01/18 10:45:22;;;;;;;11.90;7.00;;;;;;;5.54;59.53;99388.28;3599874;39;20382;-63
2023/01/18 10:47:50;;;;;;;10.98;6.95;;;;;;;5.74;58.94;99379.88;3608606;39;20047;-63
2023/01/18 10:50:41;;;;;;;8.60;6.63;;;;;;;5.89;58.60;99379.81;3608060;39;20051;-63
2023/01/18 10:53:31;;;;;;;9.00;6.55;;;;;;;5.77;57.70;99347.66;3605878;39;20095;-62
2023/01/18 10:56:08;;;;;;;8.55;6.28;;;;;;;6.12;58.21;99387.19;3604781;39;20070;-62
2023/01/18 10:58:45;;;;;;;10.55;6.78;;;;;;;6.20;57.29;99386.66;3607991;39;20378;-62
2023/01/18 11:01:24;;;;;;;10.10;7.25;;;;;;;6.23;57.25;99389.13;3605144;39;20051;-63
2023/01/18 11:04:06;;;;;;;10.50;6.57;;;;;;;6.31;56.85;99385.94;3604468;39;20484;-63
2023/01/18 11:07:03;;;;;;;11.75;6.80;;;;;;;6.51;57.00;99388.13;3608372;39;20051;-63
2023/01/18 11:09:42;;;;;;;11.48;6.65;;;;;;;6.70;56.48;99393.91;3608269;39;20051;-62
2023/01/18 11:12:44;;;;;;;9.80;6.10;;;;;;;6.90;55.70;99394.34;3605480;39;20286;-62
2023/01/18 11:15:12;;;;;;;12.38;6.28;;;;;;;7.07;54.98;99398.50;3607456;39;20079;-63
2023/01/18 11:17:56;;;;;;;10.52;7.10;;;;;;;7.14;54.78;99397.13;3605958;39;20044;-62
2023/01/18 11:20:42;;;;;;;;;;;;;;;7.18;54.87;99404.78;3609374;39;20055;-62
2023/01/18 11:23:07;;;;;;;8.57;6.25;;;;;;;7.26;54.77;99404.25;3605640;39;20356;-62
2023/01/18 11:25:44;;;;;;;10.90;6.82;;;;;;;7.41;54.20;99404.97;3606106;39;20043;-62
2023/01/18 11:28:21;;;;;;;11.40;5.85;;;;;;;7.35;54.58;99368.84;3609372;39;20817;-63
2023/01/18 11:31:06;;;;;;;10.27;6.25;;;;;;;7.63;52.83;99399.78;3606328;39;20132;-62
2023/01/18 11:33:32;;;;;;;8.20;6.13;;;;;;;7.24;53.90;99315.31;3605662;39;20054;-63
2023/01/18 11:36:02;;;;;;;10.13;6.47;;;;;;;7.91;53.08;99397.78;3606815;39;20135;-62
2023/01/18 11:38:32;;;;;;;10.40;5.90;;;;;;;8.09;52.79;99384.88;3603320;39;20057;-63
2023/01/18 11:41:22;;;;;;;8.85;6.28;;;;;;;8.27;52.43;99385.28;3605227;39;20066;-64
2023/01/18 11:44:16;;;;;;;9.23;5.95;;;;;;;8.33;51.94;99382.16;3608497;39;20050;-63
2023/01/18 11:46:47;;;;;;;;;;;;;;;8.38;51.00;99361.28;3606082;39;20089;-65
2023/01/18 11:49:42;;;;;;;8.02;5.90;;;;;;;8.62;50.88;99389.81;3607546;39;20000;-65
2023/01/18 11:52:42;;;;;;;8.80;5.57;;;;;;;8.66;50.95;99394.84;3604001;39;20135;-64
2023/01/18 11:55:30;;;;;;;8.38;5.43;;;;;;;8.89;50.13;99398.41;3604580;39;20089;-64
2023/01/18 11:57:58;;;;;;;8.00;4.90;;;;;;;8.87;50.30;99397.66;3605154;39;20057;-64
2023/01/18 12:00:30;;;;;;;7.25;5.10;;;;;;;8.96;50.34;99399.63;3603452;39;20097;-65
2023/01/18 12:03:29;;;;;;;9.30;5.47;;;;;;;9.02;49.29;99400.97;3602458;39;20051;-65
2023/01/18 12:06:27;;;;;;;9.07;5.57;;;;;;;9.11;49.79;99405.63;3605870;39;20127;-66
2023/01/18 12:09:25;;;;;;;8.25;5.25;;;;;;;8.98;49.23;99370.91;3606260;39;20062;-65
2023/01/18 12:12:27;;;;;;;8.48;5.15;;;;;;;9.28;48.21;99415.00;3604972;39;20391;-64
2023/01/18 12:14:59;;;;;;;7.78;4.85;;;;;;;9.23;49.59;99411.84;3598209;39;20061;-65
2023/01/18 12:17:54;;;;;;;9.80;5.10;;;;;;;9.34;48.42;99427.94;3608850;39;20059;-64
2023/01/18 12:20:55;;;;;;;9.70;5.00;;;;;;;9.30;48.83;99418.44;3604424;39;20047;-64
2023/01/18 12:23:46;;;;;;;8.82;4.80;;;;;;;9.47;48.98;99417.09;3591777;39;20063;-64
2023/01/18 12:26:39;;;;;;;8.18;5.03;;;;;;;9.51;48.47;99419.41;3605741;39;20079;-65
2023/01/18 12:29:42;;;;;;;7.13;4.75;;;;;;;9.69;48.20;99426.94;3607062;39;20063;-65
2023/01/18 12:32:40;;;;;;;7.25;4.40;;;;;;;9.66;48.20;99421.81;3603257;39;20066;-64